createdAt,value
2018-09-24T00:00:51.614Z,11.89
2018-09-24T00:01:51.552Z,11.84
2018-09-24T00:02:51.488Z,11.87
2018-09-24T00:03:51.422Z,11.82
2018-09-24T00:04:51.361Z,11.84
2018-09-24T00:05:51.296Z,11.91
2018-09-24T00:06:51.232Z,11.95
2018-09-24T00:07:51.175Z,11.84
2018-09-24T00:08:51.111Z,11.77
2018-09-24T00:09:51.049Z,11.89
2018-09-24T00:10:50.982Z,11.79
2018-09-24T00:11:50.925Z,11.74
2018-09-24T00:12:50.859Z,11.82
2018-09-24T00:13:50.795Z,11.82
2018-09-24T00:14:50.736Z,11.82
2018-09-24T00:15:50.671Z,11.88
2018-09-24T00:16:50.608Z,11.85
2018-09-24T00:17:50.546Z,11.79
2018-09-24T00:18:50.480Z,11.76
2018-09-24T00:19:50.421Z,11.73
2018-09-24T00:20:50.355Z,11.73
2018-09-24T00:21:50.295Z,11.67
2018-09-24T00:22:50.232Z,11.64
2018-09-24T00:23:50.168Z,11.61
2018-09-24T00:24:50.114Z,11.64
2018-09-24T00:25:50.044Z,11.64
2018-09-24T00:26:49.981Z,11.70
2018-09-24T00:27:49.922Z,11.69
2018-09-24T00:28:49.855Z,11.56
2018-09-24T00:29:49.792Z,11.52
2018-09-24T00:30:49.731Z,11.51
2018-09-24T00:31:49.666Z,11.45
2018-09-24T00:32:49.603Z,11.41
2018-09-24T00:33:49.542Z,11.48
2018-09-24T00:34:49.475Z,11.38
2018-09-24T00:35:49.411Z,11.46
2018-09-24T00:36:49.353Z,11.41
2018-09-24T00:37:49.286Z,11.49
2018-09-24T00:38:49.227Z,11.49
2018-09-24T00:39:49.163Z,11.40
2018-09-24T00:40:49.099Z,11.38
2018-09-24T00:41:49.037Z,11.41
2018-09-24T00:42:48.976Z,11.30
2018-09-24T00:43:48.910Z,11.27
2018-09-24T00:44:48.850Z,11.27
2018-09-24T00:45:48.787Z,11.30
2018-09-24T00:46:48.726Z,11.23
2018-09-24T00:47:48.661Z,11.19
2018-09-24T00:48:48.599Z,11.15
2018-09-24T00:49:48.535Z,11.19
2018-09-24T00:50:48.474Z,11.16
2018-09-24T00:51:48.406Z,11.09
2018-09-24T00:52:48.348Z,11.03
2018-09-24T00:53:48.284Z,11.05
2018-09-24T00:54:48.221Z,10.97
2018-09-24T00:55:48.159Z,10.98
2018-09-24T00:56:48.096Z,10.90
2018-09-24T00:57:48.033Z,10.93
2018-09-24T00:58:47.972Z,10.97
2018-09-24T00:59:47.904Z,10.86
2018-09-24T01:00:47.841Z,10.85
2018-09-24T01:01:47.799Z,10.83
2018-09-24T01:02:47.718Z,10.95
2018-09-24T01:03:47.652Z,10.91
2018-09-24T01:04:47.591Z,10.85
2018-09-24T01:05:47.528Z,10.93
2018-09-24T01:06:47.466Z,10.91
2018-09-24T01:07:47.403Z,10.91
2018-09-24T01:08:47.337Z,10.94
2018-09-24T01:09:47.276Z,10.85
2018-09-24T01:10:47.211Z,10.90
2018-09-24T01:11:47.148Z,10.83
2018-09-24T01:12:47.087Z,10.87
2018-09-24T01:13:47.024Z,10.82
2018-09-24T01:14:46.962Z,10.82
2018-09-24T01:15:46.899Z,10.90
2018-09-24T01:16:46.835Z,10.87
2018-09-24T01:17:46.772Z,10.85
2018-09-24T01:18:46.717Z,10.80
2018-09-24T01:19:46.643Z,10.87
2018-09-24T01:20:46.582Z,10.83
2018-09-24T01:21:46.518Z,10.85
2018-09-24T01:22:46.456Z,10.85
2018-09-24T01:23:46.392Z,10.87
2018-09-24T01:24:46.331Z,10.94
2018-09-24T01:25:46.267Z,10.82
2018-09-24T01:26:46.205Z,10.83
2018-09-24T01:27:46.141Z,10.85
2018-09-24T01:28:46.080Z,10.87
2018-09-24T01:29:46.015Z,10.85
2018-09-24T01:30:45.954Z,10.90
2018-09-24T01:31:45.888Z,10.91
2018-09-24T01:32:45.823Z,10.80
2018-09-24T01:33:45.761Z,10.79
2018-09-24T01:34:45.699Z,10.72
2018-09-24T01:35:45.638Z,10.80
2018-09-24T01:36:45.569Z,10.80
2018-09-24T01:37:45.507Z,10.83
2018-09-24T01:38:45.453Z,10.73
2018-09-24T01:39:45.394Z,10.76
2018-09-24T01:40:45.321Z,10.73
2018-09-24T01:41:45.253Z,10.68
2018-09-24T01:42:45.192Z,10.60
2018-09-24T01:43:45.137Z,10.64
2018-09-24T01:44:45.068Z,10.60
2018-09-24T01:45:45.006Z,10.55
2018-09-24T01:46:44.938Z,10.62
2018-09-24T01:47:44.878Z,10.65
2018-09-24T01:48:44.816Z,10.64
2018-09-24T01:49:44.748Z,10.57
2018-09-24T01:50:44.689Z,10.49
2018-09-24T01:51:44.625Z,10.43
2018-09-24T01:52:44.564Z,10.38
2018-09-24T01:53:44.497Z,10.45
2018-09-24T01:54:44.440Z,10.41
2018-09-24T01:55:44.374Z,10.49
2018-09-24T01:56:44.310Z,10.57
2018-09-24T01:57:44.247Z,10.52
2018-09-24T01:58:44.185Z,10.58
2018-09-24T01:59:44.122Z,10.55
2018-09-24T02:00:44.060Z,10.55
2018-09-24T02:01:43.994Z,10.54
2018-09-24T02:02:43.933Z,10.49
2018-09-24T02:03:43.889Z,10.48
2018-09-24T02:04:43.805Z,10.52
2018-09-24T02:05:43.761Z,10.45
2018-09-24T02:06:43.692Z,10.42
2018-09-24T02:07:43.693Z,10.42
2018-09-24T02:08:43.611Z,10.36
2018-09-24T02:09:43.513Z,10.39
2018-09-24T02:10:43.423Z,10.35
2018-09-24T02:11:43.364Z,10.38
2018-09-24T02:12:43.302Z,10.35
2018-09-24T02:13:43.238Z,10.35
2018-09-24T02:14:43.169Z,10.27
2018-09-24T02:15:43.109Z,10.41
2018-09-24T02:16:43.041Z,10.46
2018-09-24T02:17:42.984Z,10.42
2018-09-24T02:18:42.920Z,10.48
2018-09-24T02:19:42.856Z,10.38
2018-09-24T02:20:42.797Z,10.43
2018-09-24T02:21:42.731Z,10.46
2018-09-24T02:22:42.667Z,10.41
2018-09-24T02:23:42.601Z,10.43
2018-09-24T02:24:42.544Z,10.42
2018-09-24T02:25:42.476Z,10.39
2018-09-24T02:26:42.413Z,10.39
2018-09-24T02:27:42.349Z,10.43
2018-09-24T02:28:42.287Z,10.41
2018-09-24T02:29:42.222Z,10.42
2018-09-24T02:30:42.161Z,10.39
2018-09-24T02:31:42.099Z,10.27
2018-09-24T02:32:42.036Z,10.31
2018-09-24T02:33:41.971Z,10.24
2018-09-24T02:34:41.908Z,10.30
2018-09-24T02:35:41.846Z,10.34
2018-09-24T02:36:41.787Z,10.34
2018-09-24T02:37:41.719Z,10.21
2018-09-24T02:38:41.654Z,10.24
2018-09-24T02:39:41.592Z,10.27
2018-09-24T02:40:41.528Z,10.26
2018-09-24T02:41:41.465Z,10.31
2018-09-24T02:42:41.402Z,10.31
2018-09-24T02:43:41.338Z,10.26
2018-09-24T02:44:41.271Z,10.24
2018-09-24T02:45:41.212Z,10.24
2018-09-24T02:46:41.157Z,10.20
2018-09-24T02:47:41.086Z,10.17
2018-09-24T02:48:41.022Z,10.20
2018-09-24T02:49:40.960Z,10.23
2018-09-24T02:50:40.899Z,10.26
2018-09-24T02:51:40.832Z,10.18
2018-09-24T02:52:40.771Z,10.21
2018-09-24T02:53:40.707Z,10.17
2018-09-24T02:54:40.643Z,10.10
2018-09-24T02:55:40.580Z,10.16
2018-09-24T02:56:40.513Z,10.23
2018-09-24T02:57:40.455Z,10.24
2018-09-24T02:58:40.391Z,10.17
2018-09-24T02:59:40.328Z,10.10
2018-09-24T03:00:40.264Z,10.17
2018-09-24T03:01:40.202Z,10.10
2018-09-24T03:02:40.135Z,10.05
2018-09-24T03:03:40.073Z,10.03
2018-09-24T03:04:40.011Z,10.10
2018-09-24T03:05:39.949Z,10.12
2018-09-24T03:06:39.884Z,10.09
2018-09-24T03:07:39.821Z,10.08
2018-09-24T03:08:39.759Z,10.02
2018-09-24T03:09:39.700Z,10.02
2018-09-24T03:10:39.635Z,10.10
2018-09-24T03:11:39.567Z,10.20
2018-09-24T03:12:39.507Z,10.05
2018-09-24T03:13:39.444Z,10.05
2018-09-24T03:14:39.377Z,10.03
2018-09-24T03:15:39.316Z,9.99
2018-09-24T03:16:39.249Z,10.02
2018-09-24T03:17:39.192Z,10.06
2018-09-24T03:18:39.127Z,10.09
2018-09-24T03:19:39.063Z,10.10
2018-09-24T03:20:38.997Z,10.12
2018-09-24T03:21:38.934Z,10.01
2018-09-24T03:22:38.872Z,10.10
2018-09-24T03:23:38.808Z,10.02
2018-09-24T03:24:38.745Z,10.02
2018-09-24T03:25:38.683Z,9.99
2018-09-24T03:26:38.617Z,10.12
2018-09-24T03:27:38.560Z,10.01
2018-09-24T03:28:38.491Z,10.06
2018-09-24T03:29:38.429Z,10.08
2018-09-24T03:30:38.365Z,10.01
2018-09-24T03:31:38.301Z,10.06
2018-09-24T03:32:38.238Z,10.01
2018-09-24T03:33:38.175Z,9.99
2018-09-24T03:34:38.111Z,10.01
2018-09-24T03:35:38.052Z,10.01
2018-09-24T03:36:37.987Z,9.96
2018-09-24T03:37:37.921Z,9.98
2018-09-24T03:38:37.860Z,9.94
2018-09-24T03:39:37.794Z,9.98
2018-09-24T03:40:37.730Z,9.98
2018-09-24T03:41:37.668Z,9.88
2018-09-24T03:42:37.605Z,9.87
2018-09-24T03:43:37.541Z,9.75
2018-09-24T03:44:37.477Z,9.83
2018-09-24T03:45:37.413Z,9.78
2018-09-24T03:46:37.346Z,9.81
2018-09-24T03:47:37.286Z,9.77
2018-09-24T03:48:37.222Z,9.77
2018-09-24T03:49:37.161Z,9.72
2018-09-24T03:50:37.098Z,9.69
2018-09-24T03:51:37.033Z,9.65
2018-09-24T03:52:36.970Z,9.57
2018-09-24T03:53:36.907Z,9.62
2018-09-24T03:54:36.844Z,9.70
2018-09-24T03:55:36.779Z,9.65
2018-09-24T03:56:36.715Z,9.65
2018-09-24T03:57:36.653Z,9.66
2018-09-24T03:58:36.590Z,9.63
2018-09-24T03:59:36.529Z,9.63
2018-09-24T04:00:36.457Z,9.59
2018-09-24T04:01:36.398Z,9.63
2018-09-24T04:02:36.336Z,9.60
2018-09-24T04:03:36.275Z,9.59
2018-09-24T04:04:36.206Z,9.57
2018-09-24T04:05:36.143Z,9.54
2018-09-24T04:06:36.081Z,9.59
2018-09-24T04:07:36.017Z,9.52
2018-09-24T04:08:35.954Z,9.42
2018-09-24T04:09:35.952Z,9.47
2018-09-24T04:10:35.826Z,9.50
2018-09-24T04:11:35.761Z,9.45
2018-09-24T04:12:35.701Z,9.50
2018-09-24T04:13:35.637Z,9.51
2018-09-24T04:14:35.573Z,9.45
2018-09-24T04:15:35.506Z,9.41
2018-09-24T04:16:35.444Z,9.51
2018-09-24T04:17:35.381Z,9.54
2018-09-24T04:18:35.318Z,9.37
2018-09-24T04:19:35.266Z,9.47
2018-09-24T04:20:35.188Z,9.44
2018-09-24T04:21:35.126Z,9.40
2018-09-24T04:22:35.063Z,9.37
2018-09-24T04:23:34.998Z,9.36
2018-09-24T04:24:34.936Z,9.42
2018-09-24T04:25:34.870Z,9.34
2018-09-24T04:26:34.813Z,9.34
2018-09-24T04:27:34.741Z,9.36
2018-09-24T04:28:34.680Z,9.32
2018-09-24T04:29:34.615Z,9.33
2018-09-24T04:30:34.554Z,9.16
2018-09-24T04:31:34.492Z,9.33
2018-09-24T04:32:34.425Z,9.29
2018-09-24T04:33:34.375Z,9.32
2018-09-24T04:34:34.303Z,9.24
2018-09-24T04:35:34.234Z,9.18
2018-09-24T04:36:34.171Z,9.16
2018-09-24T04:37:34.109Z,9.27
2018-09-24T04:38:34.045Z,9.33
2018-09-24T04:39:34.044Z,9.32
2018-09-24T04:40:33.916Z,9.30
2018-09-24T04:41:33.857Z,9.30
2018-09-24T04:42:33.788Z,9.33
2018-09-24T04:43:33.745Z,9.33
2018-09-24T04:44:33.662Z,9.32
2018-09-24T04:45:33.598Z,9.32
2018-09-24T04:46:33.534Z,9.33
2018-09-24T04:47:33.470Z,9.34
2018-09-24T04:48:33.408Z,9.24
2018-09-24T04:49:33.342Z,9.30
2018-09-24T04:50:33.280Z,9.29
2018-09-24T04:51:33.216Z,9.29
2018-09-24T04:52:33.152Z,9.29
2018-09-24T04:53:33.086Z,9.18
2018-09-24T04:54:33.025Z,9.22
2018-09-24T04:55:32.959Z,9.19
2018-09-24T04:56:32.898Z,9.16
2018-09-24T04:57:32.831Z,9.30
2018-09-24T04:58:32.806Z,9.18
2018-09-24T04:59:32.706Z,9.19
2018-09-24T05:00:32.642Z,9.19
2018-09-24T05:01:32.579Z,9.16
2018-09-24T05:02:32.513Z,9.15
2018-09-24T05:03:32.448Z,9.16
2018-09-24T05:04:32.388Z,9.22
2018-09-24T05:05:32.331Z,9.22
2018-09-24T05:06:32.268Z,9.19
2018-09-24T05:07:32.188Z,9.29
2018-09-24T05:08:32.131Z,9.29
2018-09-24T05:09:32.065Z,9.30
2018-09-24T05:10:32.002Z,9.29
2018-09-24T05:11:31.943Z,9.36
2018-09-24T05:12:31.879Z,9.36
2018-09-24T05:13:31.810Z,9.30
2018-09-24T05:14:31.751Z,9.33
2018-09-24T05:15:31.683Z,9.33
2018-09-24T05:16:31.730Z,9.33
2018-09-24T05:17:31.552Z,9.27
2018-09-24T05:18:31.490Z,9.29
2018-09-24T05:19:31.427Z,9.30
2018-09-24T05:20:31.369Z,9.33
2018-09-24T05:21:31.301Z,9.29
2018-09-24T05:22:31.235Z,9.24
2018-09-24T05:23:31.172Z,9.18
2018-09-24T05:24:31.108Z,9.33
2018-09-24T05:25:31.046Z,9.30
2018-09-24T05:26:30.983Z,9.27
2018-09-24T05:27:30.971Z,9.22
2018-09-24T05:28:30.855Z,9.29
2018-09-24T05:29:30.795Z,9.29
2018-09-24T05:30:30.728Z,9.32
2018-09-24T05:31:30.664Z,9.30
2018-09-24T05:32:30.648Z,9.29
2018-09-24T05:33:30.539Z,9.27
2018-09-24T05:34:30.512Z,9.29
2018-09-24T05:35:30.414Z,9.33
2018-09-24T05:36:30.368Z,9.32
2018-09-24T05:37:30.279Z,9.36
2018-09-24T05:38:30.213Z,9.36
2018-09-24T05:39:30.153Z,9.32
2018-09-24T05:40:30.088Z,9.34
2018-09-24T05:41:30.027Z,9.36
2018-09-24T05:42:29.966Z,9.23
2018-09-24T05:43:29.893Z,9.19
2018-09-24T05:44:29.834Z,9.32
2018-09-24T05:45:29.769Z,9.34
2018-09-24T05:46:29.716Z,9.36
2018-09-24T05:47:29.642Z,9.41
2018-09-24T05:48:29.583Z,9.32
2018-09-24T05:49:29.516Z,9.41
2018-09-24T05:50:29.449Z,9.45
2018-09-24T05:51:29.388Z,9.36
2018-09-24T05:52:29.323Z,9.48
2018-09-24T05:53:29.257Z,9.42
2018-09-24T05:54:29.201Z,9.36
2018-09-24T05:55:29.131Z,9.45
2018-09-24T05:56:29.067Z,9.45
2018-09-24T05:57:29.001Z,9.50
2018-09-24T05:58:28.941Z,9.42
2018-09-24T05:59:28.873Z,9.42
2018-09-24T06:00:28.814Z,9.52
2018-09-24T06:01:28.750Z,9.47
2018-09-24T06:02:28.687Z,9.48
2018-09-24T06:03:28.622Z,9.42
2018-09-24T06:04:28.572Z,9.51
2018-09-24T06:05:28.496Z,9.42
2018-09-24T06:06:28.433Z,9.50
2018-09-24T06:07:28.368Z,9.41
2018-09-24T06:08:28.304Z,9.57
2018-09-24T06:09:28.240Z,9.51
2018-09-24T06:10:28.175Z,9.54
2018-09-24T06:11:28.112Z,9.55
2018-09-24T06:12:28.068Z,9.57
2018-09-24T06:13:28.011Z,9.57
2018-09-24T06:14:27.921Z,9.54
2018-09-24T06:15:27.856Z,9.59
2018-09-24T06:16:27.795Z,9.62
2018-09-24T06:17:27.731Z,9.57
2018-09-24T06:18:27.671Z,9.60
2018-09-24T06:19:27.606Z,9.54
2018-09-24T06:20:27.555Z,9.59
2018-09-24T06:21:27.475Z,9.57
2018-09-24T06:22:27.414Z,9.51
2018-09-24T06:23:27.352Z,9.65
2018-09-24T06:24:27.279Z,9.55
2018-09-24T06:25:27.228Z,9.62
2018-09-24T06:26:27.160Z,9.57
2018-09-24T06:27:27.091Z,9.60
2018-09-24T06:28:27.109Z,9.73
2018-09-24T06:29:26.967Z,9.72
2018-09-24T06:30:26.905Z,9.75
2018-09-24T06:31:26.839Z,9.84
2018-09-24T06:32:26.778Z,9.85
2018-09-24T06:33:26.714Z,9.80
2018-09-24T06:34:26.656Z,9.75
2018-09-24T06:35:26.583Z,9.84
2018-09-24T06:36:26.520Z,9.73
2018-09-24T06:37:26.459Z,9.83
2018-09-24T06:38:26.393Z,9.84
2018-09-24T06:39:26.329Z,9.81
2018-09-24T06:40:26.264Z,9.88
2018-09-24T06:41:26.202Z,9.94
2018-09-24T06:42:26.139Z,9.94
2018-09-24T06:43:26.077Z,9.94
2018-09-24T06:44:26.015Z,9.99
2018-09-24T06:45:25.948Z,10.02
2018-09-24T06:46:25.884Z,9.93
2018-09-24T06:47:25.820Z,9.98
2018-09-24T06:48:25.758Z,10.09
2018-09-24T06:49:25.694Z,10.02
2018-09-24T06:50:25.631Z,9.99
2018-09-24T06:51:25.569Z,10.14
2018-09-24T06:52:25.503Z,10.14
2018-09-24T06:53:25.440Z,10.16
2018-09-24T06:54:25.378Z,10.10
2018-09-24T06:55:25.315Z,10.10
2018-09-24T06:56:25.249Z,10.14
2018-09-24T06:57:25.186Z,10.09
2018-09-24T06:58:25.120Z,10.09
2018-09-24T06:59:25.111Z,10.17
2018-09-24T07:00:24.997Z,10.21
2018-09-24T07:01:24.933Z,10.21
2018-09-24T07:02:24.868Z,10.23
2018-09-24T07:03:24.806Z,10.31
2018-09-24T07:04:24.741Z,10.34
2018-09-24T07:05:24.744Z,10.35
2018-09-24T07:06:24.615Z,10.26
2018-09-24T07:07:24.552Z,10.30
2018-09-24T07:08:24.489Z,10.41
2018-09-24T07:09:24.426Z,10.34
2018-09-24T07:10:24.361Z,10.41
2018-09-24T07:11:24.333Z,10.42
2018-09-24T07:12:24.235Z,10.45
2018-09-24T07:13:24.172Z,10.41
2018-09-24T07:14:24.115Z,10.39
2018-09-24T07:15:24.045Z,10.42
2018-09-24T07:16:23.980Z,10.41
2018-09-24T07:17:23.921Z,10.31
2018-09-24T07:18:23.856Z,10.28
2018-09-24T07:19:23.792Z,10.41
2018-09-24T07:20:23.725Z,10.38
2018-09-24T07:21:23.694Z,10.28
2018-09-24T07:22:23.602Z,10.35
2018-09-24T07:23:23.537Z,10.41
2018-09-24T07:24:23.477Z,10.46
2018-09-24T07:25:23.413Z,10.58
2018-09-24T07:26:23.349Z,10.68
2018-09-24T07:27:23.286Z,10.70
2018-09-24T07:28:23.250Z,10.64
2018-09-24T07:29:23.159Z,10.76
2018-09-24T07:30:23.097Z,10.65
2018-09-24T07:31:23.032Z,10.64
2018-09-24T07:32:22.968Z,10.68
2018-09-24T07:33:22.978Z,10.79
2018-09-24T07:34:22.843Z,10.70
2018-09-24T07:35:22.780Z,10.72
2018-09-24T07:36:22.718Z,10.68
2018-09-24T07:37:22.658Z,10.75
2018-09-24T07:38:22.595Z,10.75
2018-09-24T07:39:22.539Z,10.80
2018-09-24T07:40:22.464Z,10.93
2018-09-24T07:41:22.400Z,10.91
2018-09-24T07:42:22.350Z,11.01
2018-09-24T07:43:22.319Z,11.03
2018-09-24T07:44:22.217Z,11.03
2018-09-24T07:45:22.149Z,11.05
2018-09-24T07:46:22.090Z,11.01
2018-09-24T07:47:22.020Z,11.00
2018-09-24T07:48:21.964Z,11.00
2018-09-24T07:49:21.895Z,11.01
2018-09-24T07:50:21.834Z,10.93
2018-09-24T07:51:21.770Z,10.93
2018-09-24T07:52:21.707Z,10.95
2018-09-24T07:53:21.643Z,10.98
2018-09-24T07:54:21.576Z,11.04
2018-09-24T07:55:21.538Z,11.16
2018-09-24T07:56:21.455Z,11.27
2018-09-24T07:57:21.393Z,11.37
2018-09-24T07:58:21.333Z,11.41
2018-09-24T07:59:21.267Z,11.31
2018-09-24T08:00:21.202Z,11.36
2018-09-24T08:01:21.138Z,11.38
2018-09-24T08:02:21.078Z,11.41
2018-09-24T08:03:21.012Z,11.48
2018-09-24T08:04:20.955Z,11.40
2018-09-24T08:05:20.887Z,11.40
2018-09-24T08:06:20.825Z,11.37
2018-09-24T08:07:20.780Z,11.45
2018-09-24T08:08:20.696Z,11.41
2018-09-24T08:09:20.638Z,11.51
2018-09-24T08:10:20.577Z,11.52
2018-09-24T08:11:20.510Z,11.56
2018-09-24T08:12:20.448Z,11.70
2018-09-24T08:13:20.409Z,11.70
2018-09-24T08:14:20.320Z,11.55
2018-09-24T08:15:20.260Z,11.66
2018-09-24T08:16:20.200Z,11.54
2018-09-24T08:17:20.135Z,11.56
2018-09-24T08:18:20.070Z,11.52
2018-09-24T08:19:20.007Z,11.36
2018-09-24T08:20:19.943Z,11.40
2018-09-24T08:21:19.883Z,11.37
2018-09-24T08:22:19.819Z,11.36
2018-09-24T08:23:19.753Z,11.27
2018-09-24T08:24:19.693Z,11.28
2018-09-24T08:25:19.630Z,11.37
2018-09-24T08:26:19.570Z,11.48
2018-09-24T08:27:19.505Z,11.56
2018-09-24T08:28:19.441Z,11.64
2018-09-24T08:29:19.381Z,11.73
2018-09-24T08:30:19.315Z,11.77
2018-09-24T08:31:19.254Z,11.73
2018-09-24T08:32:19.196Z,11.73
2018-09-24T08:33:19.137Z,11.80
2018-09-24T08:34:19.064Z,11.77
2018-09-24T08:35:19.011Z,11.77
2018-09-24T08:36:18.979Z,11.89
2018-09-24T08:37:18.876Z,11.79
2018-09-24T08:38:18.814Z,11.69
2018-09-24T08:39:18.750Z,11.66
2018-09-24T08:40:18.688Z,11.66
2018-09-24T08:41:18.624Z,11.74
2018-09-24T08:42:18.564Z,11.80
2018-09-24T08:43:18.499Z,11.82
2018-09-24T08:44:18.438Z,11.73
2018-09-24T08:45:18.373Z,11.74
2018-09-24T08:46:18.312Z,11.59
2018-09-24T08:47:18.250Z,11.67
2018-09-24T08:48:18.189Z,11.69
2018-09-24T08:49:18.124Z,11.74
2018-09-24T08:50:18.065Z,11.76
2018-09-24T08:51:17.999Z,11.73
2018-09-24T08:52:17.937Z,11.82
2018-09-24T08:53:17.942Z,11.74
2018-09-24T08:54:17.814Z,11.77
2018-09-24T08:55:17.748Z,11.91
2018-09-24T08:56:17.681Z,11.89
2018-09-24T08:57:17.736Z,11.89
2018-09-24T08:58:17.561Z,11.91
2018-09-24T08:59:17.496Z,11.85
2018-09-24T09:00:17.438Z,11.93
2018-09-24T09:01:17.371Z,11.97
2018-09-24T09:02:17.310Z,11.88
2018-09-24T09:03:17.243Z,11.99
2018-09-24T09:04:17.183Z,11.82
2018-09-24T09:05:17.120Z,11.82
2018-09-24T09:06:17.058Z,11.91
2018-09-24T09:07:16.995Z,11.93
2018-09-24T09:08:16.941Z,11.95
2018-09-24T09:09:16.878Z,12.03
2018-09-24T09:10:16.806Z,11.88
2018-09-24T09:11:16.743Z,12.00
2018-09-24T09:12:16.680Z,12.04
2018-09-24T09:13:16.625Z,12.10
2018-09-24T09:14:16.553Z,12.28
2018-09-24T09:15:16.496Z,12.38
2018-09-24T09:16:16.488Z,12.30
2018-09-24T09:17:16.369Z,12.43
2018-09-24T09:18:16.322Z,12.32
2018-09-24T09:19:16.242Z,12.29
2018-09-24T09:20:16.179Z,12.36
2018-09-24T09:21:16.118Z,12.33
2018-09-24T09:22:16.060Z,12.22
2018-09-24T09:23:15.989Z,12.15
2018-09-24T09:24:15.935Z,12.14
2018-09-24T09:25:15.871Z,12.04
2018-09-24T09:26:15.804Z,11.99
2018-09-24T09:27:15.740Z,11.89
2018-09-24T09:28:15.680Z,11.91
2018-09-24T09:29:15.632Z,11.91
2018-09-24T09:30:15.555Z,11.87
2018-09-24T09:31:15.488Z,11.99
2018-09-24T09:32:15.429Z,12.07
2018-09-24T09:33:15.367Z,12.07
2018-09-24T09:34:15.316Z,12.13
2018-09-24T09:35:15.283Z,12.23
2018-09-24T09:36:15.177Z,12.35
2018-09-24T09:37:15.117Z,12.44
2018-09-24T09:38:15.055Z,12.46
2018-09-24T09:39:14.990Z,12.46
2018-09-24T09:40:14.935Z,12.47
2018-09-24T09:41:14.990Z,12.47
2018-09-24T09:42:14.802Z,12.46
2018-09-24T09:43:14.741Z,12.53
2018-09-24T09:44:14.679Z,12.48
2018-09-24T09:45:14.614Z,12.54
2018-09-24T09:46:14.554Z,12.53
2018-09-24T09:47:14.490Z,12.48
2018-09-24T09:48:14.426Z,12.46
2018-09-24T09:49:14.362Z,12.40
2018-09-24T09:50:14.303Z,12.28
2018-09-24T09:51:14.241Z,12.36
2018-09-24T09:52:14.176Z,12.35
2018-09-24T09:53:14.117Z,12.35
2018-09-24T09:54:14.053Z,12.23
2018-09-24T09:55:13.986Z,12.36
2018-09-24T09:56:13.928Z,12.36
2018-09-24T09:57:13.867Z,12.32
2018-09-24T09:58:13.806Z,12.44
2018-09-24T09:59:13.799Z,12.51
2018-09-24T10:00:13.678Z,12.50
2018-09-24T10:01:13.664Z,12.58
2018-09-24T10:02:13.599Z,12.46
2018-09-24T10:03:13.606Z,12.41
2018-09-24T10:04:13.430Z,12.38
2018-09-24T10:05:13.379Z,12.50
2018-09-24T10:06:13.305Z,12.59
2018-09-24T10:07:13.239Z,12.76
2018-09-24T10:08:13.180Z,12.68
2018-09-24T10:09:13.121Z,12.73
2018-09-24T10:10:13.056Z,12.79
2018-09-24T10:11:13.044Z,12.79
2018-09-24T10:12:12.929Z,12.76
2018-09-24T10:13:12.867Z,12.65
2018-09-24T10:14:12.804Z,12.55
2018-09-24T10:15:12.743Z,12.63
2018-09-24T10:16:12.682Z,12.54
2018-09-24T10:17:12.618Z,12.62
2018-09-24T10:18:12.557Z,12.54
2018-09-24T10:19:12.498Z,12.62
2018-09-24T10:20:12.435Z,12.61
2018-09-24T10:21:12.366Z,12.72
2018-09-24T10:22:12.306Z,12.73
2018-09-24T10:23:12.256Z,12.77
2018-09-24T10:24:12.182Z,12.84
2018-09-24T10:25:12.122Z,12.98
2018-09-24T10:26:12.063Z,12.91
2018-09-24T10:27:12.001Z,13.11
2018-09-24T10:28:11.932Z,13.11
2018-09-24T10:29:11.876Z,13.16
2018-09-24T10:30:11.807Z,13.14
2018-09-24T10:31:11.745Z,13.16
2018-09-24T10:32:11.687Z,13.17
2018-09-24T10:33:11.623Z,13.21
2018-09-24T10:34:11.562Z,13.21
2018-09-24T10:35:11.497Z,13.19
2018-09-24T10:36:11.433Z,13.21
2018-09-24T10:37:11.376Z,13.19
2018-09-24T10:38:11.318Z,13.30
2018-09-24T10:39:11.255Z,13.35
2018-09-24T10:40:11.193Z,13.54
2018-09-24T10:41:11.126Z,13.49
2018-09-24T10:42:11.066Z,13.38
2018-09-24T10:43:11.002Z,13.45
2018-09-24T10:44:10.940Z,13.38
2018-09-24T10:45:10.876Z,13.46
2018-09-24T10:46:10.895Z,13.23
2018-09-24T10:47:10.754Z,13.27
2018-09-24T10:48:10.690Z,13.26
2018-09-24T10:49:10.630Z,13.24
2018-09-24T10:50:10.568Z,13.32
2018-09-24T10:51:10.505Z,13.40
2018-09-24T10:52:10.446Z,13.42
2018-09-24T10:53:10.382Z,13.49
2018-09-24T10:54:10.322Z,13.71
2018-09-24T10:55:10.257Z,13.61
2018-09-24T10:56:10.197Z,13.60
2018-09-24T10:57:10.133Z,13.51
2018-09-24T10:58:10.072Z,13.55
2018-09-24T10:59:10.020Z,13.53
2018-09-24T11:00:09.955Z,13.51
2018-09-24T11:01:09.888Z,13.51
2018-09-24T11:02:09.833Z,13.32
2018-09-24T11:03:09.763Z,13.26
2018-09-24T11:04:09.700Z,13.24
2018-09-24T11:05:09.640Z,13.13
2018-09-24T11:06:09.577Z,13.19
2018-09-24T11:07:09.520Z,13.17
2018-09-24T11:08:09.457Z,13.23
2018-09-24T11:09:09.394Z,13.29
2018-09-24T11:10:09.375Z,13.35
2018-09-24T11:11:09.267Z,13.24
2018-09-24T11:12:09.205Z,13.42
2018-09-24T11:13:09.143Z,13.35
2018-09-24T11:14:09.081Z,13.40
2018-09-24T11:15:09.019Z,13.38
2018-09-24T11:16:09.066Z,13.39
2018-09-24T11:17:09.204Z,13.46
2018-09-24T11:18:08.910Z,13.49
2018-09-24T11:19:08.774Z,13.54
2018-09-24T11:20:08.733Z,13.72
2018-09-24T11:21:08.650Z,13.73
2018-09-24T11:22:08.615Z,13.79
2018-09-24T11:23:08.524Z,13.91
2018-09-24T11:24:08.460Z,13.94
2018-09-24T11:25:08.400Z,13.96
2018-09-24T11:26:08.339Z,13.86
2018-09-24T11:27:08.278Z,13.82
2018-09-24T11:28:08.215Z,13.72
2018-09-24T11:29:08.151Z,13.68
2018-09-24T11:30:08.092Z,13.64
2018-09-24T11:31:08.028Z,13.51
2018-09-24T11:32:07.966Z,13.47
2018-09-24T11:33:07.909Z,13.49
2018-09-24T11:34:07.845Z,13.60
2018-09-24T11:35:07.783Z,13.67
2018-09-24T11:36:07.720Z,13.72
2018-09-24T11:37:07.661Z,13.61
2018-09-24T11:38:07.598Z,13.60
2018-09-24T11:39:07.533Z,13.63
2018-09-24T11:40:07.470Z,13.68
2018-09-24T11:41:07.411Z,13.73
2018-09-24T11:42:07.349Z,13.78
2018-09-24T11:43:07.287Z,13.71
2018-09-24T11:44:07.225Z,13.78
2018-09-24T11:45:07.163Z,13.75
2018-09-24T11:46:07.108Z,13.88
2018-09-24T11:47:07.128Z,13.90
2018-09-24T11:48:06.980Z,14.03
2018-09-24T11:49:06.913Z,14.08
2018-09-24T11:50:06.854Z,14.22
2018-09-24T11:51:06.791Z,14.23
2018-09-24T11:52:06.730Z,14.28
2018-09-24T11:53:06.669Z,14.33
2018-09-24T11:54:06.607Z,14.36
2018-09-24T11:55:06.543Z,14.34
2018-09-24T11:56:06.482Z,14.45
2018-09-24T11:57:06.423Z,14.45
2018-09-24T11:58:06.363Z,14.40
2018-09-24T11:59:06.297Z,14.36
2018-09-24T12:00:06.237Z,14.36
2018-09-24T12:01:06.174Z,14.37
2018-09-24T12:02:06.164Z,14.53
2018-09-24T12:03:06.048Z,14.56
2018-09-24T12:04:05.990Z,14.63
2018-09-24T12:05:05.929Z,14.63
2018-09-24T12:06:05.865Z,14.58
2018-09-24T12:07:05.804Z,14.46
2018-09-24T12:08:05.743Z,14.52
2018-09-24T12:09:05.681Z,14.41
2018-09-24T12:10:05.624Z,14.49
2018-09-24T12:11:05.557Z,14.48
2018-09-24T12:12:05.495Z,14.28
2018-09-24T12:13:05.436Z,14.19
2018-09-24T12:14:05.382Z,14.01
2018-09-24T12:15:05.322Z,13.98
2018-09-24T12:16:05.250Z,14.03
2018-09-24T12:17:05.196Z,13.90
2018-09-24T12:18:05.149Z,13.86
2018-09-24T12:19:05.068Z,13.82
2018-09-24T12:20:05.004Z,13.78
2018-09-24T12:21:04.943Z,13.80
2018-09-24T12:22:04.881Z,13.78
2018-09-24T12:23:04.819Z,13.71
2018-09-24T12:24:04.762Z,13.60
2018-09-24T12:25:04.695Z,13.71
2018-09-24T12:26:04.638Z,13.68
2018-09-24T12:27:04.573Z,13.65
2018-09-24T12:28:04.513Z,13.57
2018-09-24T12:29:04.464Z,13.51
2018-09-24T12:30:04.394Z,13.57
2018-09-24T12:31:04.349Z,13.60
2018-09-24T12:32:04.289Z,13.60
2018-09-24T12:33:04.208Z,13.64
2018-09-24T12:34:04.139Z,13.64
2018-09-24T12:35:04.079Z,13.71
2018-09-24T12:36:04.018Z,13.71
2018-09-24T12:37:03.954Z,13.71
2018-09-24T12:38:03.892Z,13.71
2018-09-24T12:39:03.829Z,13.72
2018-09-24T12:40:03.766Z,13.80
2018-09-24T12:41:03.703Z,13.73
2018-09-24T12:42:03.647Z,13.78
2018-09-24T12:43:03.584Z,13.63
2018-09-24T12:44:03.524Z,13.65
2018-09-24T12:45:03.460Z,13.63
2018-09-24T12:46:03.403Z,13.64
2018-09-24T12:47:03.339Z,13.57
2018-09-24T12:48:03.373Z,13.58
2018-09-24T12:49:03.214Z,13.61
2018-09-24T12:50:03.154Z,13.73
2018-09-24T12:51:03.091Z,13.75
2018-09-24T12:52:03.030Z,13.80
2018-09-24T12:53:02.965Z,13.88
2018-09-24T12:54:02.912Z,14.00
2018-09-24T12:55:02.841Z,13.98
2018-09-24T12:56:02.778Z,14.11
2018-09-24T12:57:02.713Z,14.01
2018-09-24T12:58:02.653Z,14.15